Time;durP1;ratioP1;P1;durP2;ratioP2;P2;SDS_P1;SDS_P2;PMS_P1;PMS_P2;Temp;Humidity;BMP_temperature;BMP_pressure;BME280_temperature;BME280_humidity;BME280_pressure;Samples;Min_cycle;Max_cycle;Signal;HPM_P1;HPM_P2
2022/06/14 00:01:56;;;;;;;5.47;2.17;;;14.90;98.80;;;;;;5043381;28;20452;-69
2022/06/14 00:04:22;;;;;;;8.35;2.97;;;14.90;99.00;;;;;;5043114;28;20021;-70
2022/06/14 00:06:48;;;;;;;6.65;3.50;;;14.90;99.20;;;;;;5041814;28;20032;-70
2022/06/14 00:09:14;;;;;;;6.82;3.28;;;14.90;99.40;;;;;;5043780;28;20373;-69
2022/06/14 00:11:40;;;;;;;6.78;3.40;;;14.80;99.10;;;;;;5042853;28;20025;-69
2022/06/14 00:14:10;;;;;;;5.05;3.55;;;14.80;98.90;;;;;;5043866;28;20036;-70
2022/06/14 00:16:37;;;;;;;7.07;3.28;;;14.80;99.30;;;;;;5043657;28;20055;-70
2022/06/14 00:19:04;;;;;;;5.97;2.83;;;14.80;99.60;;;;;;5043503;28;20117;-69
2022/06/14 00:21:31;;;;;;;9.13;2.92;;;14.70;99.90;;;;;;5042925;28;20017;-69
2022/06/14 00:23:57;;;;;;;8.60;3.15;;;14.50;99.90;;;;;;5042491;28;20028;-69
2022/06/14 00:26:23;;;;;;;9.23;2.78;;;14.40;99.90;;;;;;5043553;28;20020;-69
2022/06/14 00:28:48;;;;;;;6.03;3.03;;;14.50;99.90;;;;;;5042252;28;20026;-69
2022/06/14 00:31:20;;;;;;;6.50;2.67;;;14.40;99.90;;;;;;5043784;28;20485;-69
2022/06/14 00:33:46;;;;;;;8.93;3.20;;;14.40;99.90;;;;;;5043695;28;20420;-69
2022/06/14 00:36:30;;;;;;;6.05;2.95;;;14.40;99.90;;;;;;5043792;28;20028;-69
2022/06/14 00:38:59;;;;;;;9.32;2.90;;;14.50;99.90;;;;;;5041809;28;20009;-69
2022/06/14 00:41:34;;;;;;;5.95;2.85;;;14.40;99.90;;;;;;5044855;28;20104;-69
2022/06/14 00:43:59;;;;;;;6.20;2.70;;;14.50;99.90;;;;;;5042968;28;20072;-69
2022/06/14 00:46:40;;;;;;;5.55;2.85;;;14.50;99.90;;;;;;5042247;28;20021;-69
2022/06/14 00:49:13;;;;;;;11.70;3.13;;;14.40;99.90;;;;;;5041265;28;20099;-69
2022/06/14 00:51:52;;;;;;;6.35;3.20;;;14.40;99.80;;;;;;5042528;28;20021;-69
2022/06/14 00:54:31;;;;;;;10.02;3.10;;;14.40;99.90;;;;;;5039646;28;20037;-69
2022/06/14 00:57:12;;;;;;;6.30;3.10;;;14.30;99.90;;;;;;5041390;28;20033;-69
2022/06/14 01:00:04;;;;;;;6.68;3.03;;;14.30;99.90;;;;;;5043502;28;20017;-69
2022/06/14 01:02:40;;;;;;;8.15;3.13;;;14.30;99.90;;;;;;5042220;28;20030;-69
2022/06/14 01:05:10;;;;;;;7.53;3.60;;;14.30;99.90;;;;;;5041118;28;20092;-70
2022/06/14 01:07:44;;;;;;;6.82;3.33;;;14.20;99.90;;;;;;5042815;28;20021;-69
2022/06/14 01:10:19;;;;;;;6.88;3.70;;;14.20;99.90;;;;;;5041895;28;20013;-69
2022/06/14 01:12:48;;;;;;;7.65;3.20;;;14.20;99.90;;;;;;5041643;28;20033;-69
2022/06/14 01:15:23;;;;;;;5.63;3.25;;;14.10;99.90;;;;;;5042265;28;20061;-69
2022/06/14 01:18:12;;;;;;;6.35;3.20;;;14.10;99.90;;;;;;5042038;28;20056;-69
2022/06/14 01:20:38;;;;;;;8.75;3.72;;;14.10;99.90;;;;;;5042784;28;20056;-69
2022/06/14 01:23:06;;;;;;;9.07;3.60;;;14.10;99.90;;;;;;5041392;28;20029;-69
2022/06/14 01:25:40;;;;;;;8.68;3.42;;;14.10;99.90;;;;;;5042638;28;20530;-69
2022/06/14 01:28:09;;;;;;;8.85;3.05;;;14.00;99.90;;;;;;5040669;28;20040;-70
2022/06/14 01:30:45;;;;;;;7.07;2.67;;;13.90;99.90;;;;;;5046581;28;20064;-69
2022/06/14 01:33:30;;;;;;;6.13;3.17;;;13.80;99.90;;;;;;5052368;28;20362;-69
2022/06/14 01:36:00;;;;;;;7.35;3.60;;;13.90;99.90;;;;;;5052280;28;20100;-69
2022/06/14 01:38:26;;;;;;;7.82;3.67;;;13.90;99.90;;;;;;5051411;28;20029;-69
2022/06/14 01:41:13;;;;;;;8.98;3.90;;;13.80;99.90;;;;;;5052771;28;20025;-69
2022/06/14 01:43:59;;;;;;;6.38;3.60;;;13.80;99.90;;;;;;5053079;28;20033;-69
2022/06/14 01:46:27;;;;;;;6.28;3.65;;;13.80;99.90;;;;;;5037896;28;20215;-69
2022/06/14 01:52:19;;;;;;;12.25;4.97;;;13.70;99.90;;;;;;5032097;28;20048;-69
2022/06/14 01:55:14;;;;;;;11.05;4.38;;;13.70;99.90;;;;;;5032537;28;20033;-69
2022/06/14 01:57:59;;;;;;;12.30;4.22;;;13.60;99.90;;;;;;5063198;28;20034;-69
2022/06/14 02:00:29;;;;;;;8.05;3.85;;;13.70;99.90;;;;;;5031643;28;20050;-69
2022/06/14 02:06:08;;;;;;;8.65;4.53;;;13.40;99.90;;;;;;5047768;28;20090;-69
2022/06/14 02:08:42;;;;;;;10.35;4.22;;;13.20;99.90;;;;;;5055735;28;20029;-69
2022/06/14 02:11:26;;;;;;;9.02;4.00;;;13.30;99.90;;;;;;5056624;28;20056;-69
2022/06/14 02:14:15;;;;;;;6.05;4.20;;;13.30;99.90;;;;;;5056498;28;20029;-69
2022/06/14 02:16:49;;;;;;;9.00;3.88;;;13.30;99.90;;;;;;5056000;28;20117;-69
2022/06/14 02:19:19;;;;;;;5.47;3.40;;;13.30;99.90;;;;;;5056293;28;20392;-69
2022/06/14 02:21:49;;;;;;;8.77;4.18;;;13.30;99.90;;;;;;5053275;28;20044;-69
2022/06/14 02:24:24;;;;;;;7.05;4.03;;;13.20;99.90;;;;;;5056433;28;20021;-69
2022/06/14 02:27:11;;;;;;;7.13;3.90;;;13.20;99.90;;;;;;5056468;28;20029;-69
2022/06/14 02:29:48;;;;;;;5.28;3.45;;;13.20;99.90;;;;;;5055741;28;20535;-69
2022/06/14 02:32:22;;;;;;;11.20;3.50;;;13.20;99.90;;;;;;5056077;28;20036;-69
2022/06/14 02:34:53;;;;;;;11.77;4.10;;;13.10;99.90;;;;;;5054862;28;20573;-69
2022/06/14 02:37:46;;;;;;;9.20;3.77;;;13.10;99.90;;;;;;5035362;28;20025;-70
2022/06/14 02:40:23;;;;;;;9.43;3.92;;;13.00;99.90;;;;;;5036062;28;20291;-69
2022/06/14 02:43:21;;;;;;;4.65;3.42;;;13.00;99.90;;;;;;5036134;28;20163;-69
2022/06/14 02:46:06;;;;;;;10.77;4.00;;;12.90;99.90;;;;;;5036161;28;20029;-69
2022/06/14 02:48:44;;;;;;;5.40;3.60;;;12.90;99.90;;;;;;5035342;28;20044;-69
2022/06/14 02:51:33;;;;;;;10.30;4.20;;;12.80;99.90;;;;;;5048578;28;20037;-69
2022/06/14 02:54:11;;;;;;;7.18;3.88;;;12.80;99.90;;;;;;5055400;28;20044;-69
2022/06/14 02:57:12;;;;;;;6.32;3.75;;;12.80;99.90;;;;;;5055532;28;20014;-70
2022/06/14 02:59:44;;;;;;;11.02;3.85;;;12.80;99.90;;;;;;5038086;28;20049;-69
2022/06/14 03:02:17;;;;;;;6.18;3.97;;;12.80;99.90;;;;;;5034597;28;20022;-69
2022/06/14 03:04:59;;;;;;;6.65;3.92;;;12.70;99.90;;;;;;5035066;28;20029;-69
2022/06/14 03:07:31;;;;;;;10.90;3.70;;;12.70;99.90;;;;;;5048939;28;20037;-69
2022/06/14 03:09:57;;;;;;;9.10;4.40;;;12.60;99.90;;;;;;5055474;28;20538;-70
2022/06/14 03:12:31;;;;;;;11.18;4.40;;;12.60;99.90;;;;;;5055175;28;20029;-69
2022/06/14 03:15:25;;;;;;;7.00;4.38;;;12.60;99.90;;;;;;5054170;28;20044;-69
2022/06/14 03:17:54;;;;;;;8.27;4.32;;;12.60;99.90;;;;;;5054506;28;20024;-69
2022/06/14 03:20:58;;;;;;;7.80;3.80;;;12.60;99.90;;;;;;5055501;28;20037;-69
2022/06/14 03:23:55;;;;;;;8.32;3.92;;;12.50;99.90;;;;;;5055364;28;20088;-69
2022/06/14 03:26:37;;;;;;;6.55;3.97;;;12.50;99.90;;;;;;5053697;28;20091;-69
2022/06/14 03:29:10;;;;;;;8.10;4.43;;;12.50;99.90;;;;;;5051054;28;20018;-69
2022/06/14 03:31:45;;;;;;;9.10;4.50;;;12.40;99.90;;;;;;5035050;28;20025;-69
2022/06/14 03:34:38;;;;;;;7.80;4.32;;;12.50;99.90;;;;;;5033877;28;20033;-69
2022/06/14 03:37:04;;;;;;;10.75;4.30;;;12.40;99.90;;;;;;5045414;28;20028;-69
2022/06/14 03:39:37;;;;;;;7.43;4.30;;;12.40;99.90;;;;;;5055010;28;20118;-69
2022/06/14 03:42:06;;;;;;;10.85;4.85;;;12.40;99.90;;;;;;5054737;28;20492;-69
2022/06/14 03:44:33;;;;;;;6.50;4.35;;;12.40;99.90;;;;;;5036538;28;20061;-68
2022/06/14 03:47:22;;;;;;;10.68;4.32;;;12.40;99.90;;;;;;5034586;28;20029;-68
2022/06/14 03:50:01;;;;;;;7.78;4.63;;;12.30;99.90;;;;;;5034928;28;20055;-68
2022/06/14 03:52:52;;;;;;;8.68;4.50;;;12.40;99.90;;;;;;5035676;28;20101;-68
2022/06/14 03:55:30;;;;;;;7.97;5.43;;;12.40;99.90;;;;;;5048827;28;20031;-68
2022/06/14 03:58:33;;;;;;;11.75;5.05;;;12.30;99.90;;;;;;5054453;28;20032;-68
2022/06/14 04:01:07;;;;;;;7.82;4.80;;;12.30;99.90;;;;;;5054408;28;20108;-68
2022/06/14 04:03:38;;;;;;;7.10;4.38;;;12.30;99.90;;;;;;5054547;28;20021;-68
2022/06/14 04:06:25;;;;;;;11.75;5.60;;;12.30;99.90;;;;;;5052814;28;20036;-68
2022/06/14 04:09:19;;;;;;;8.13;4.80;;;12.30;99.90;;;;;;5053744;28;20417;-68
2022/06/14 04:12:13;;;;;;;9.18;4.25;;;12.20;99.90;;;;;;5070695;28;20032;-68
2022/06/14 04:15:15;;;;;;;6.55;4.75;;;12.30;99.90;;;;;;5047469;28;20523;-68
2022/06/14 04:17:57;;;;;;;11.37;5.17;;;12.20;99.90;;;;;;5032854;28;20486;-68
2022/06/14 04:20:31;;;;;;;9.60;5.32;;;12.20;99.90;;;;;;5034523;28;20022;-68
2022/06/14 04:23:15;;;;;;;9.95;4.90;;;12.20;99.90;;;;;;5047034;28;20524;-68
2022/06/14 04:25:48;;;;;;;9.02;5.63;;;12.20;99.90;;;;;;5054130;28;20032;-68
2022/06/14 04:28:56;;;;;;;12.60;5.13;;;12.20;99.90;;;;;;5059598;28;20035;-67
2022/06/14 04:31:46;;;;;;;8.88;4.82;;;12.20;99.90;;;;;;5071441;28;20107;-68
2022/06/14 04:34:18;;;;;;;5.40;4.90;;;12.20;99.90;;;;;;5073052;28;20512;-69
2022/06/14 04:36:55;;;;;;;8.32;5.15;;;12.20;99.90;;;;;;5061084;28;20024;-69
2022/06/14 04:39:33;;;;;;;11.25;5.75;;;12.20;99.90;;;;;;5053804;28;20116;-69
2022/06/14 04:42:01;;;;;;;5.75;5.15;;;12.20;99.90;;;;;;5053896;28;20116;-69
2022/06/14 04:44:47;;;;;;;9.13;5.00;;;12.20;99.90;;;;;;5053607;28;20406;-69
2022/06/14 04:47:23;;;;;;;8.00;5.43;;;12.30;99.90;;;;;;5053825;28;20044;-68
2022/06/14 04:49:58;;;;;;;7.13;5.18;;;12.30;99.90;;;;;;5052790;28;20020;-69
2022/06/14 04:53:04;;;;;;;10.77;5.25;;;12.30;99.90;;;;;;5053382;28;20060;-69
2022/06/14 04:55:40;;;;;;;8.70;5.20;;;12.40;99.90;;;;;;5053432;28;20409;-69
2022/06/14 04:58:05;;;;;;;9.93;6.18;;;12.40;99.90;;;;;;5052373;28;20358;-68
2022/06/14 05:00:41;;;;;;;9.38;6.05;;;12.40;99.90;;;;;;5041287;28;20112;-69
2022/06/14 05:03:22;;;;;;;9.18;6.38;;;12.40;99.90;;;;;;5044792;28;20039;-71
2022/06/14 05:05:57;;;;;;;12.20;6.55;;;12.40;99.90;;;;;;5051486;28;20025;-69
2022/06/14 05:08:41;;;;;;;10.32;6.40;;;12.50;99.90;;;;;;5037388;28;20055;-69
2022/06/14 05:11:10;;;;;;;12.10;7.07;;;12.50;99.90;;;;;;5053241;28;20029;-69
2022/06/14 05:13:49;;;;;;;8.18;6.22;;;12.60;99.90;;;;;;5052809;28;20083;-70
2022/06/14 05:16:42;;;;;;;8.98;5.30;;;12.60;99.90;;;;;;5052876;28;20029;-70
2022/06/14 05:19:29;;;;;;;10.43;5.97;;;12.60;99.90;;;;;;5052400;28;20045;-70
2022/06/14 05:22:04;;;;;;;6.50;5.05;;;12.70;99.90;;;;;;5052565;28;20029;-70
2022/06/14 05:24:31;;;;;;;8.23;4.90;;;12.70;99.90;;;;;;5032782;28;20509;-69
2022/06/14 05:27:21;;;;;;;16.33;5.53;;;12.80;99.90;;;;;;5048828;28;20029;-69
2022/06/14 05:30:08;;;;;;;10.00;5.88;;;12.70;99.90;;;;;;5072637;28;20421;-69
2022/06/14 05:32:52;;;;;;;7.18;4.80;;;12.80;99.90;;;;;;5062185;28;20032;-69
2022/06/14 05:35:23;;;;;;;9.18;6.55;;;12.80;99.90;;;;;;5052544;28;20029;-69
2022/06/14 05:38:29;;;;;;;7.63;6.38;;;12.90;99.90;;;;;;5038345;28;20036;-69
2022/06/14 05:41:07;;;;;;;13.43;6.68;;;12.90;99.90;;;;;;5031747;28;20025;-69
2022/06/14 05:43:43;;;;;;;8.65;6.20;;;12.90;99.90;;;;;;5070825;28;20041;-70
2022/06/14 05:46:16;;;;;;;15.70;6.47;;;12.90;99.90;;;;;;5059986;28;20033;-70
2022/06/14 05:48:48;;;;;;;10.85;6.40;;;13.00;99.90;;;;;;5052884;28;20021;-69
2022/06/14 05:51:15;;;;;;;13.07;6.25;;;13.00;99.90;;;;;;5051860;28;20025;-69
2022/06/14 05:53:46;;;;;;;13.70;6.63;;;13.10;99.90;;;;;;5052320;28;20067;-69
2022/06/14 05:57:13;;;;;;;10.75;6.40;;;13.10;99.90;;;;;;5052114;28;20021;-70
2022/06/14 05:59:50;;;;;;;16.58;6.53;;;13.10;99.90;;;;;;5018954;28;20413;-69
2022/06/14 06:02:37;;;;;;;12.98;5.22;;;13.20;99.90;;;;;;5038413;28;20026;-70
2022/06/14 06:05:18;;;;;;;17.15;4.95;;;13.20;99.90;;;;;;5046671;28;20384;-70
2022/06/14 06:07:52;;;;;;;11.88;4.75;;;13.30;99.90;;;;;;5049700;28;20037;-69
2022/06/14 06:10:33;;;;;;;10.27;4.53;;;13.40;99.90;;;;;;5032517;28;20022;-69
2022/06/14 06:13:09;;;;;;;13.85;4.60;;;13.50;99.90;;;;;;5045324;28;20035;-70
2022/06/14 06:16:01;;;;;;;12.70;4.13;;;13.50;99.90;;;;;;5048703;28;20033;-70
2022/06/14 06:18:47;;;;;;;15.07;4.07;;;13.60;99.90;;;;;;5032222;28;20101;-70
2022/06/14 06:21:39;;;;;;;11.18;3.25;;;13.70;99.90;;;;;;5060582;28;20021;-70
2022/06/14 06:24:10;;;;;;;6.55;3.30;;;13.70;99.90;;;;;;5052430;28;20119;-70
2022/06/14 06:26:40;;;;;;;8.65;3.10;;;13.70;99.90;;;;;;5051768;28;20025;-70
2022/06/14 06:29:14;;;;;;;11.32;3.22;;;13.90;99.90;;;;;;5052454;28;20014;-70
2022/06/14 06:31:42;;;;;;;8.77;2.85;;;14.00;99.90;;;;;;5059575;28;20473;-71
2022/06/14 06:34:13;;;;;;;9.25;2.75;;;14.10;99.90;;;;;;5072462;28;20036;-70
2022/06/14 06:36:56;;;;;;;9.15;3.20;;;14.20;99.90;;;;;;5061993;28;20504;-70
2022/06/14 06:39:36;;;;;;;7.95;3.28;;;14.20;99.90;;;;;;5040456;28;20470;-70
2022/06/14 06:42:32;;;;;;;9.38;2.80;;;14.40;99.90;;;;;;5041528;28;20022;-70
2022/06/14 06:45:28;;;;;;;8.90;2.38;;;14.50;99.90;;;;;;5044438;28;20106;-71
2022/06/14 06:48:15;;;;;;;5.60;2.65;;;14.70;99.90;;;;;;5042508;28;20064;-71
2022/06/14 06:50:48;;;;;;;8.35;3.08;;;14.90;99.90;;;;;;5040689;28;20025;-70
2022/06/14 06:53:16;;;;;;;9.05;3.03;;;15.00;99.90;;;;;;5039026;28;20428;-71
2022/06/14 06:56:06;;;;;;;11.32;2.47;;;15.10;99.90;;;;;;5040782;28;20105;-71
2022/06/14 06:58:41;;;;;;;8.75;2.92;;;15.30;99.90;;;;;;5044210;28;20032;-71
2022/06/14 07:01:18;;;;;;;8.95;2.50;;;15.60;99.90;;;;;;5055368;28;20087;-71
2022/06/14 07:04:10;;;;;;;12.45;2.63;;;16.00;99.90;;;;;;5055588;28;20031;-71
2022/06/14 07:06:41;;;;;;;8.93;3.75;;;16.00;99.90;;;;;;5055048;28;20072;-71
2022/06/14 07:09:22;;;;;;;11.32;3.20;;;16.40;99.90;;;;;;5055856;28;20576;-71
2022/06/14 07:11:52;;;;;;;11.23;3.33;;;16.50;99.90;;;;;;5059855;28;20115;-71
2022/06/14 07:14:39;;;;;;;15.95;3.70;;;16.50;99.90;;;;;;5075402;28;20041;-71
2022/06/14 07:17:33;;;;;;;9.98;3.17;;;16.80;99.90;;;;;;5046865;28;20105;-71
2022/06/14 07:20:11;;;;;;;9.48;2.92;;;16.80;99.90;;;;;;5034853;28;20033;-72
2022/06/14 07:22:45;;;;;;;11.82;2.75;;;16.90;99.90;;;;;;5042911;28;20025;-70
2022/06/14 07:25:18;;;;;;;8.15;2.42;;;17.10;99.90;;;;;;5054758;28;20044;-71
2022/06/14 07:27:54;;;;;;;11.60;2.63;;;17.20;99.90;;;;;;5071162;28;20469;-71
2022/06/14 07:30:29;;;;;;;5.20;2.10;;;17.30;99.90;;;;;;5074959;28;20016;-71
2022/06/14 07:32:57;;;;;;;6.68;2.13;;;17.30;99.90;;;;;;5074405;28;20021;-70
2022/06/14 07:35:31;;;;;;;7.05;2.35;;;17.50;99.90;;;;;;5071251;28;20138;-71
2022/06/14 07:38:06;;;;;;;7.35;2.80;;;17.60;99.90;;;;;;5043042;28;20112;-71
2022/06/14 07:40:45;;;;;;;4.07;2.03;;;17.70;99.90;;;;;;5034147;28;20026;-71
2022/06/14 07:43:24;;;;;;;5.82;1.92;;;17.70;99.90;;;;;;5039814;28;20370;-71
2022/06/14 07:45:51;;;;;;;5.15;2.30;;;18.00;99.90;;;;;;5044546;28;20065;-71
2022/06/14 07:48:47;;;;;;;6.80;2.35;;;18.20;99.90;;;;;;5045917;28;20032;-71
2022/06/14 07:51:50;;;;;;;6.82;2.28;;;18.30;99.90;;;;;;5043752;28;20014;-71
2022/06/14 07:54:43;;;;;;;4.03;1.65;;;18.50;99.90;;;;;;5054147;28;20045;-71
2022/06/14 07:57:21;;;;;;;4.15;1.55;;;18.70;99.90;;;;;;5054549;28;20024;-72
2022/06/14 08:01:07;;;;;;;7.20;1.65;;;18.80;98.30;;;;;;5052347;28;20044;-71
2022/06/14 08:02:48;;;;;;;5.22;1.90;;;19.00;98.40;;;;;;5026375;28;20037;-71
2022/06/14 08:05:19;;;;;;;6.55;2.10;;;19.20;98.60;;;;;;5050315;28;20024;-71
2022/06/14 08:07:47;;;;;;;4.53;1.50;;;19.10;98.60;;;;;;5043712;28;20071;-71
2022/06/14 08:10:24;;;;;;;7.30;2.08;;;19.20;96.70;;;;;;5039620;28;20553;-71
2022/06/14 08:13:05;;;;;;;4.30;2.13;;;19.10;97.20;;;;;;5046736;28;20033;-71
2022/06/14 08:15:49;;;;;;;6.53;2.10;;;19.30;98.60;;;;;;5044024;28;20103;-71
2022/06/14 08:18:28;;;;;;;5.60;1.95;;;19.40;97.30;;;;;;5064360;28;20582;-71
2022/06/14 08:21:22;;;;;;;9.43;2.28;;;19.50;96.80;;;;;;5053019;28;20031;-71
2022/06/14 08:24:03;;;;;;;4.85;1.73;;;19.70;96.00;;;;;;5061167;28;20676;-71
2022/06/14 08:26:50;;;;;;;5.13;1.95;;;19.90;95.00;;;;;;5053156;28;20351;-71
2022/06/14 08:29:33;;;;;;;4.80;2.00;;;20.10;96.30;;;;;;5044110;28;20049;-71
2022/06/14 08:32:10;;;;;;;7.97;2.85;;;20.10;95.70;;;;;;5041668;28;20036;-71
2022/06/14 08:35:00;;;;;;;2.92;1.48;;;20.40;95.30;;;;;;5065532;28;20047;-71
2022/06/14 08:37:45;;;;;;;2.78;1.33;;;20.30;96.00;;;;;;5042403;28;20078;-72
2022/06/14 08:40:19;;;;;;;8.50;2.03;;;20.30;97.40;;;;;;5050562;28;20028;-72
2022/06/14 08:42:55;;;;;;;6.78;2.30;;;20.30;95.20;;;;;;5052441;28;20056;-71
2022/06/14 08:45:34;;;;;;;5.88;1.92;;;20.40;94.30;;;;;;5059191;28;20055;-71
2022/06/14 08:48:14;;;;;;;8.07;2.15;;;20.40;94.00;;;;;;5057402;28;20032;-71
2022/06/14 08:50:58;;;;;;;5.28;2.30;;;20.60;94.10;;;;;;5055077;28;20052;-72
2022/06/14 08:53:45;;;;;;;5.57;1.55;;;20.70;94.60;;;;;;5062463;28;20081;-72
2022/06/14 08:56:35;;;;;;;5.70;2.03;;;20.70;94.50;;;;;;5045218;28;20033;-72
2022/06/14 08:59:22;;;;;;;3.60;1.98;;;20.80;94.00;;;;;;5070756;28;20024;-71
2022/06/14 09:02:12;;;;;;;6.43;1.90;;;20.80;95.20;;;;;;5049148;28;20029;-71
2022/06/14 09:04:59;;;;;;;4.97;1.67;;;21.00;93.60;;;;;;5065644;28;20054;-71
2022/06/14 09:07:55;;;;;;;5.43;1.70;;;21.00;93.50;;;;;;5059091;28;20028;-71
2022/06/14 09:10:21;;;;;;;3.58;1.60;;;21.20;93.00;;;;;;5057932;28;20021;-71
2022/06/14 09:13:05;;;;;;;5.25;1.55;;;21.00;93.10;;;;;;5056046;28;20032;-71
2022/06/14 09:16:19;;;;;;;6.32;1.50;;;21.00;93.00;;;;;;5057719;28;20052;-71
2022/06/14 09:18:54;;;;;;;3.78;1.95;;;21.10;92.70;;;;;;5052110;28;20378;-72
2022/06/14 09:21:30;;;;;;;4.28;1.70;;;21.10;92.70;;;;;;5057398;28;20027;-70
2022/06/14 09:24:11;;;;;;;5.82;1.80;;;21.40;93.00;;;;;;5059424;28;20025;-70
2022/06/14 09:26:54;;;;;;;6.13;1.85;;;21.80;92.10;;;;;;5067366;28;20043;-71
2022/06/14 09:29:58;;;;;;;4.20;1.50;;;22.10;90.90;;;;;;5038074;28;20025;-71
2022/06/14 09:35:53;;;;;;;7.07;2.05;;;21.80;91.50;;;;;;5045723;28;20123;-71
2022/06/14 09:38:28;;;;;;;4.70;1.73;;;21.90;92.00;;;;;;5060976;28;20396;-71
2022/06/14 09:41:02;;;;;;;6.82;2.30;;;22.10;91.70;;;;;;5055300;28;20039;-71
2022/06/14 09:43:47;;;;;;;23.27;16.48;;;22.10;90.80;;;;;;5064295;28;20032;-71
2022/06/14 09:46:48;;;;;;;6.55;2.00;;;22.10;91.60;;;;;;5048456;28;20037;-71
2022/06/14 09:49:35;;;;;;;4.68;2.08;;;22.10;93.00;;;;;;5040753;28;20021;-71
2022/06/14 09:52:38;;;;;;;9.10;2.40;;;22.10;90.40;;;;;;5054697;28;20032;-71
2022/06/14 09:55:18;;;;;;;4.18;1.55;;;22.30;88.70;;;;;;5045120;28;20043;-71
2022/06/14 09:57:56;;;;;;;5.93;2.13;;;22.60;90.20;;;;;;5052429;28;20479;-71
2022/06/14 10:00:33;;;;;;;4.57;2.15;;;22.60;91.30;;;;;;5050126;28;20025;-71
2022/06/14 10:03:16;;;;;;;4.22;1.83;;;22.60;91.50;;;;;;5051510;28;20114;-71
2022/06/14 10:05:47;;;;;;;4.20;2.03;;;22.50;90.50;;;;;;5058965;28;20051;-71
2022/06/14 10:08:21;;;;;;;6.15;2.63;;;22.40;90.80;;;;;;5049978;28;20024;-71
2022/06/14 10:10:56;;;;;;;9.00;4.63;;;23.00;90.40;;;;;;5045029;28;20584;-71
2022/06/14 10:13:49;;;;;;;5.07;1.90;;;22.70;91.10;;;;;;5042584;28;20112;-71
2022/06/14 10:16:52;;;;;;;2.70;1.50;;;22.90;91.00;;;;;;5044261;28;20036;-71
2022/06/14 10:19:30;;;;;;;5.15;2.47;;;22.90;92.20;;;;;;5043366;28;20032;-71
2022/06/14 10:22:28;;;;;;;10.00;3.67;;;23.20;91.10;;;;;;5041707;28;20072;-71
2022/06/14 10:25:00;;;;;;;5.55;1.80;;;23.30;88.70;;;;;;5045901;28;20029;-71
2022/06/14 10:30:52;;;;;;;3.65;2.05;;;23.40;90.00;;;;;;5044639;28;20055;-71
2022/06/14 10:33:45;;;;;;;4.22;1.73;;;23.20;90.10;;;;;;5045136;28;20036;-71
2022/06/14 10:36:19;;;;;;;6.20;2.20;;;23.40;89.90;;;;;;5047615;28;20030;-71
2022/06/14 10:38:47;;;;;;;3.95;2.05;;;23.50;88.70;;;;;;5043668;28;20022;-71
2022/06/14 10:41:19;;;;;;;3.67;1.60;;;23.50;83.90;;;;;;5055548;28;20034;-71
2022/06/14 10:44:04;;;;;;;3.92;2.35;;;23.30;84.10;;;;;;5057294;28;20037;-71
2022/06/14 10:46:39;;;;;;;7.70;2.05;;;23.50;90.60;;;;;;5044951;28;20433;-71
2022/06/14 10:49:11;;;;;;;5.72;2.05;;;23.70;89.80;;;;;;5047431;28;20028;-71
2022/06/14 10:51:58;;;;;;;6.53;2.88;;;23.90;88.40;;;;;;5051553;28;20051;-71
2022/06/14 10:54:42;;;;;;;3.00;1.70;;;23.90;86.50;;;;;;5048524;28;20109;-70
2022/06/14 10:57:43;;;;;;;3.80;1.83;;;23.80;88.30;;;;;;5042601;28;20047;-71
2022/06/14 11:00:17;;;;;;;8.05;2.42;;;23.90;88.10;;;;;;5051856;28;20117;-69
2022/06/14 11:03:04;;;;;;;5.85;3.15;;;24.00;84.10;;;;;;5048086;28;20539;-70
2022/06/14 11:05:56;;;;;;;4.75;2.13;;;24.10;85.40;;;;;;5045305;28;20029;-71
2022/06/14 11:08:37;;;;;;;3.73;2.17;;;24.20;86.10;;;;;;5049197;28;20025;-70
2022/06/14 11:11:45;;;;;;;7.05;2.67;;;23.90;86.90;;;;;;5055476;28;20021;-70
2022/06/14 11:14:14;;;;;;;5.68;2.90;;;23.60;84.20;;;;;;5038606;28;20067;-71
2022/06/14 11:17:05;;;;;;;4.47;2.25;;;24.00;88.10;;;;;;5044692;28;20024;-70
2022/06/14 11:19:39;;;;;;;4.78;2.17;;;24.30;88.00;;;;;;5051147;28;20629;-70
2022/06/14 11:22:08;;;;;;;6.35;2.40;;;24.10;90.40;;;;;;5054807;28;20139;-71
2022/06/14 11:24:42;;;;;;;6.85;2.80;;;24.50;84.70;;;;;;5057654;28;20025;-71
2022/06/14 11:27:16;;;;;;;5.68;2.40;;;24.40;83.80;;;;;;5042445;28;20053;-70
2022/06/14 11:29:53;;;;;;;5.70;1.98;;;24.30;84.40;;;;;;5066004;28;20025;-70
2022/06/14 11:32:38;;;;;;;6.68;2.28;;;24.30;86.00;;;;;;5054720;28;20064;-71
2022/06/14 11:35:29;;;;;;;4.50;2.10;;;24.30;85.90;;;;;;5053470;28;20033;-71
2022/06/14 11:38:03;;;;;;;4.50;1.73;;;24.60;87.10;;;;;;5057326;28;20472;-70
2022/06/14 11:40:32;;;;;;;5.10;2.10;;;24.50;85.40;;;;;;5053055;28;20040;-70
2022/06/14 11:43:36;;;;;;;4.15;2.20;;;24.70;86.00;;;;;;5064937;28;20784;-71
2022/06/14 11:46:13;;;;;;;7.97;2.90;;;24.80;88.10;;;;;;5061686;28;20033;-71
2022/06/14 11:49:01;;;;;;;6.60;2.72;;;24.80;86.30;;;;;;5070612;28;20035;-71
2022/06/14 11:51:46;;;;;;;3.60;2.17;;;24.80;85.10;;;;;;5056347;28;20021;-71
2022/06/14 11:54:19;;;;;;;5.07;3.28;;;24.90;84.70;;;;;;5060469;28;20072;-71
2022/06/14 11:56:53;;;;;;;4.55;2.08;;;25.30;84.80;;;;;;5054919;28;20055;-71
2022/06/14 11:59:32;;;;;;;4.32;2.33;;;24.90;83.80;;;;;;5063570;28;20079;-71
2022/06/14 12:02:15;;;;;;;5.72;2.22;;;24.80;84.00;;;;;;5044157;28;20032;-71
2022/06/14 12:04:56;;;;;;;;;;;24.80;85.10;;;;;;5056532;28;20028;-70
2022/06/14 12:07:41;;;;;;;6.20;2.58;;;24.80;83.20;;;;;;5057114;28;19904;-71
2022/06/14 12:10:44;;;;;;;5.85;2.30;;;24.80;81.90;;;;;;5051335;28;20029;-71
2022/06/14 12:13:35;;;;;;;5.10;2.55;;;24.80;87.00;;;;;;5041351;28;20499;-71
2022/06/14 12:16:11;;;;;;;5.20;1.92;;;24.80;85.40;;;;;;5061621;28;20485;-71
2022/06/14 12:18:41;;;;;;;4.95;2.10;;;25.10;86.10;;;;;;5058365;28;20025;-71
2022/06/14 12:21:15;;;;;;;6.63;3.00;;;25.20;82.40;;;;;;5041509;28;20101;-71
2022/06/14 12:23:46;;;;;;;5.05;2.83;;;25.30;82.90;;;;;;5064451;28;20021;-71
2022/06/14 12:26:37;;;;;;;8.63;2.63;;;25.40;82.70;;;;;;5064999;28;20028;-70
2022/06/14 12:29:17;;;;;;;5.70;2.75;;;25.50;82.10;;;;;;5051885;28;20025;-71
2022/06/14 12:31:51;;;;;;;8.70;2.67;;;25.60;85.70;;;;;;5038669;28;20013;-71
2022/06/14 12:34:46;;;;;;;8.88;3.10;;;25.60;83.20;;;;;;5059831;28;20032;-71
2022/06/14 12:37:18;;;;;;;7.03;2.33;;;25.40;82.30;;;;;;5043131;28;20036;-71
2022/06/14 12:39:59;;;;;;;7.45;2.17;;;25.30;84.30;;;;;;5063225;28;20473;-71
2022/06/14 12:42:35;;;;;;;5.72;1.83;;;25.10;80.60;;;;;;5052801;28;20036;-71
2022/06/14 12:45:04;;;;;;;7.95;2.22;;;25.20;83.60;;;;;;5040041;28;20377;-71
2022/06/14 12:47:48;;;;;;;5.13;2.20;;;25.40;82.30;;;;;;5063942;28;20028;-71
2022/06/14 12:50:25;;;;;;;6.15;2.15;;;25.60;77.30;;;;;;5054022;28;20029;-70
2022/06/14 12:53:00;;;;;;;3.42;1.40;;;25.70;80.00;;;;;;5047275;28;20833;-71
2022/06/14 12:55:55;;;;;;;7.93;2.42;;;25.70;81.10;;;;;;5056590;28;20075;-71
2022/06/14 12:58:38;;;;;;;6.78;1.80;;;25.80;80.60;;;;;;5063960;28;20082;-71
2022/06/14 13:01:38;;;;;;;6.03;1.90;;;25.80;84.80;;;;;;5049207;28;20032;-71
2022/06/14 13:04:30;;;;;;;4.45;2.10;;;25.60;80.80;;;;;;5045410;28;20533;-71
2022/06/14 13:07:18;;;;;;;4.18;2.10;;;25.70;84.50;;;;;;5046740;28;20049;-71
2022/06/14 13:10:27;;;;;;;3.67;1.63;;;25.50;82.00;;;;;;5035649;28;20160;-71
2022/06/14 13:13:18;;;;;;;5.88;1.88;;;25.80;80.20;;;;;;5058651;28;20098;-71
2022/06/14 13:16:08;;;;;;;3.58;2.25;;;25.60;84.10;;;;;;5062016;28;20037;-71
2022/06/14 13:19:00;;;;;;;2.83;1.48;;;25.70;75.80;;;;;;5050563;28;20067;-71
2022/06/14 13:21:29;;;;;;;4.38;1.83;;;25.80;84.80;;;;;;5045001;28;20119;-71
2022/06/14 13:24:16;;;;;;;4.45;2.30;;;26.10;79.20;;;;;;5055061;28;20021;-71
2022/06/14 13:27:17;;;;;;;3.70;2.30;;;26.10;78.80;;;;;;5068576;28;20103;-71
2022/06/14 13:30:01;;;;;;;4.68;1.75;;;26.10;80.00;;;;;;5050362;28;20033;-71
2022/06/14 13:32:38;;;;;;;5.88;1.90;;;26.10;77.10;;;;;;5045015;28;20030;-71
2022/06/14 13:35:13;;;;;;;3.10;1.67;;;26.00;75.00;;;;;;5045847;28;20068;-71
2022/06/14 13:37:44;;;;;;;2.85;1.77;;;25.90;77.70;;;;;;5044493;28;20025;-71
2022/06/14 13:40:31;;;;;;;3.50;1.50;;;26.00;79.60;;;;;;5041903;28;20048;-71
2022/06/14 13:43:08;;;;;;;4.13;1.70;;;25.50;75.80;;;;;;5042363;28;20077;-71
2022/06/14 13:45:48;;;;;;;4.95;2.03;;;25.80;78.50;;;;;;5042630;28;20033;-71
2022/06/14 13:48:21;;;;;;;6.05;2.10;;;25.80;82.50;;;;;;5044493;28;20095;-71
2022/06/14 13:50:57;;;;;;;3.55;1.40;;;25.90;83.30;;;;;;5044477;28;20033;-71
2022/06/14 13:53:26;;;;;;;5.85;2.00;;;25.90;84.50;;;;;;5042767;28;20053;-71
2022/06/14 13:56:03;;;;;;;10.07;2.58;;;25.60;76.60;;;;;;5040549;28;20103;-72
2022/06/14 13:58:44;;;;;;;4.68;2.00;;;25.50;80.30;;;;;;5045368;28;20500;-71
2022/06/14 14:01:31;;;;;;;4.18;1.65;;;25.80;80.70;;;;;;5052973;28;20037;-71
2022/06/14 14:04:03;;;;;;;5.57;2.30;;;25.80;77.80;;;;;;5050792;28;20053;-70
2022/06/14 14:07:10;;;;;;;3.05;1.13;;;25.70;73.40;;;;;;5055817;28;20126;-70